Time;durP1;ratioP1;P1;durP2;ratioP2;P2;SDS_P1;SDS_P2;PMS_P1;PMS_P2;Temp;Humidity;BMP_temperature;BMP_pressure;BME280_temperature;BME280_humidity;BME280_pressure;Samples;Min_cycle;Max_cycle;Signal;HPM_P1;HPM_P2
2023/07/05 00:01:45;;;;;;;4.53;2.53;;;21.60;99.90;;;;;;7386272;19;20492;-75
2023/07/05 00:04:11;;;;;;;4.70;2.72;;;21.60;99.90;;;;;;7384537;19;20146;-75
2023/07/05 00:06:37;;;;;;;4.45;2.88;;;21.70;99.90;;;;;;7386585;19;20476;-75
2023/07/05 00:09:03;;;;;;;3.28;2.60;;;21.60;99.90;;;;;;7386797;19;20152;-75
2023/07/05 00:11:29;;;;;;;2.78;2.20;;;21.70;99.90;;;;;;7387778;19;20134;-76
2023/07/05 00:13:55;;;;;;;4.70;2.65;;;21.70;99.90;;;;;;7384267;19;20150;-74
2023/07/05 00:16:21;;;;;;;6.38;3.03;;;21.60;99.90;;;;;;7385196;19;20509;-75
2023/07/05 00:18:47;;;;;;;5.72;3.47;;;21.40;99.90;;;;;;7387007;19;20149;-75
2023/07/05 00:21:13;;;;;;;5.25;2.63;;;21.40;99.90;;;;;;7386761;19;20716;-76
2023/07/05 00:23:40;;;;;;;4.22;2.78;;;21.60;99.90;;;;;;7385076;19;20134;-76
2023/07/05 00:26:07;;;;;;;4.53;2.75;;;21.60;99.90;;;;;;7384539;19;20143;-76
2023/07/05 00:28:33;;;;;;;3.70;2.50;;;21.40;99.90;;;;;;7385471;19;20139;-76
2023/07/05 00:30:59;;;;;;;3.97;2.45;;;21.40;99.90;;;;;;7384495;19;20214;-76
2023/07/05 00:33:25;;;;;;;3.05;2.50;;;21.40;99.90;;;;;;7385350;19;20147;-76
2023/07/05 00:35:53;;;;;;;3.13;2.50;;;21.30;99.90;;;;;;7383236;19;20169;-75
2023/07/05 00:38:20;;;;;;;4.80;3.05;;;21.30;99.90;;;;;;7385794;19;20213;-76
2023/07/05 00:40:46;;;;;;;5.97;2.92;;;21.40;99.90;;;;;;7383721;19;20164;-75
2023/07/05 00:43:13;;;;;;;3.53;2.45;;;21.50;99.90;;;;;;7385614;19;20584;-76
2023/07/05 00:45:48;;;;;;;5.72;2.75;;;21.30;99.90;;;;;;7385395;19;20574;-75
2023/07/05 00:48:16;;;;;;;3.97;2.33;;;21.50;99.90;;;;;;7385142;19;20233;-76
2023/07/05 00:50:45;;;;;;;6.18;2.72;;;21.40;99.90;;;;;;7385905;19;20160;-76
2023/07/05 00:53:12;;;;;;;4.05;2.70;;;21.60;99.90;;;;;;7384890;19;20159;-76
2023/07/05 00:55:44;;;;;;;5.53;2.70;;;21.60;99.90;;;;;;7384328;19;20162;-76
2023/07/05 00:58:10;;;;;;;4.20;2.70;;;21.50;99.90;;;;;;7382515;19;20157;-76
2023/07/05 01:00:37;;;;;;;5.53;3.20;;;21.50;99.90;;;;;;7385049;19;20139;-75
2023/07/05 01:03:08;;;;;;;4.18;2.50;;;21.40;99.90;;;;;;7383029;19;20150;-75
2023/07/05 01:05:34;;;;;;;3.95;2.38;;;21.30;99.90;;;;;;7383384;19;20139;-75
2023/07/05 01:08:03;;;;;;;4.38;2.47;;;21.40;99.90;;;;;;7382603;19;20487;-75
2023/07/05 01:10:28;;;;;;;4.28;2.53;;;21.40;99.90;;;;;;7383641;19;20141;-75
2023/07/05 01:13:08;;;;;;;3.75;2.75;;;21.50;99.90;;;;;;7389168;19;20940;-75
2023/07/05 01:15:46;;;;;;;2.95;2.25;;;21.50;99.90;;;;;;7389637;19;20127;-76
2023/07/05 01:18:21;;;;;;;5.00;2.55;;;21.40;99.90;;;;;;7390650;19;20127;-75
2023/07/05 01:20:57;;;;;;;3.22;2.25;;;21.40;99.90;;;;;;7388591;19;20198;-76
2023/07/05 01:23:37;;;;;;;5.25;2.45;;;21.40;99.90;;;;;;7391886;19;20137;-74
2023/07/05 01:26:55;;;;;;;3.35;1.83;;;21.40;99.90;;;;;;7390023;19;20164;-76
2023/07/05 01:29:58;;;;;;;2.53;1.63;;;21.40;99.90;;;;;;7389295;19;20168;-74
2023/07/05 01:33:17;;;;;;;2.53;1.48;;;21.40;99.90;;;;;;7389802;19;20154;-75
2023/07/05 01:35:50;;;;;;;2.33;1.65;;;21.40;99.90;;;;;;7384804;19;20152;-75
2023/07/05 01:38:16;;;;;;;1.67;1.42;;;21.40;99.90;;;;;;7390657;19;20175;-76
2023/07/05 01:40:45;;;;;;;3.13;1.45;;;21.40;99.90;;;;;;7389764;19;20138;-76
2023/07/05 01:43:15;;;;;;;2.83;1.45;;;21.40;99.90;;;;;;7392317;19;20157;-76
2023/07/05 01:46:01;;;;;;;2.45;1.58;;;21.40;99.90;;;;;;7388057;19;20161;-76
2023/07/05 01:48:37;;;;;;;3.28;1.45;;;21.40;99.90;;;;;;7386918;19;20131;-76
2023/07/05 01:51:31;;;;;;;1.75;1.50;;;21.30;99.90;;;;;;7388924;19;20143;-76
2023/07/05 01:54:24;;;;;;;3.33;1.23;;;21.30;99.90;;;;;;7387825;19;20150;-76
2023/07/05 01:57:02;;;;;;;2.53;1.40;;;21.40;99.90;;;;;;7387167;19;20146;-75
2023/07/05 01:59:36;;;;;;;1.92;1.35;;;21.40;99.90;;;;;;7389666;19;20141;-74
2023/07/05 02:02:04;;;;;;;2.10;1.00;;;21.30;99.90;;;;;;7389636;19;20630;-74
2023/07/05 02:04:35;;;;;;;1.55;1.25;;;21.30;99.90;;;;;;7387340;19;20613;-75
2023/07/05 02:07:05;;;;;;;1.70;1.20;;;21.10;99.90;;;;;;7390356;19;20166;-74
2023/07/05 02:09:36;;;;;;;1.35;1.17;;;21.00;99.90;;;;;;7387583;19;20130;-75
2023/07/05 02:12:02;;;;;;;2.33;1.33;;;21.10;99.90;;;;;;7390698;19;20222;-75
2023/07/05 02:14:27;;;;;;;1.20;1.08;;;21.30;99.90;;;;;;7386859;19;20138;-75
2023/07/05 02:16:53;;;;;;;1.17;1.08;;;21.40;99.90;;;;;;7387940;19;20135;-76
2023/07/05 02:19:19;;;;;;;1.58;1.35;;;21.40;99.90;;;;;;7387893;19;20133;-75
2023/07/05 02:21:46;;;;;;;1.50;1.17;;;21.40;99.90;;;;;;7390083;19;20563;-75
2023/07/05 02:24:11;;;;;;;2.10;1.30;;;21.50;99.90;;;;;;7385857;19;20662;-76
2023/07/05 02:26:37;;;;;;;3.05;1.50;;;21.50;99.90;;;;;;7389533;19;20142;-75
2023/07/05 02:29:03;;;;;;;1.67;1.30;;;21.50;99.90;;;;;;7386938;19;20158;-74
2023/07/05 02:31:29;;;;;;;3.83;1.35;;;21.40;99.90;;;;;;7387692;19;20184;-76
2023/07/05 02:33:54;;;;;;;1.65;1.10;;;21.50;99.90;;;;;;7385671;19;20181;-75
2023/07/05 02:36:20;;;;;;;1.25;1.10;;;21.40;99.90;;;;;;7387987;19;20139;-75
2023/07/05 02:38:46;;;;;;;1.67;1.20;;;21.40;99.90;;;;;;7387227;19;20145;-76
2023/07/05 02:41:12;;;;;;;1.52;1.17;;;21.40;99.90;;;;;;7389748;19;20161;-76
2023/07/05 02:43:37;;;;;;;2.13;1.10;;;21.40;99.90;;;;;;7387551;19;20158;-76
2023/07/05 02:46:05;;;;;;;3.30;1.15;;;21.30;99.90;;;;;;7388792;19;20146;-75
2023/07/05 02:48:31;;;;;;;4.40;1.40;;;21.20;99.90;;;;;;7388649;19;20126;-75
2023/07/05 02:50:57;;;;;;;1.85;1.02;;;21.20;99.90;;;;;;7387841;19;20148;-74
2023/07/05 02:53:23;;;;;;;2.35;1.27;;;21.20;99.90;;;;;;7387782;19;20236;-75
2023/07/05 02:55:49;;;;;;;1.98;1.27;;;21.30;99.90;;;;;;7387202;19;20127;-75
2023/07/05 02:58:15;;;;;;;3.65;1.10;;;21.20;99.90;;;;;;7380490;19;20138;-75
2023/07/05 03:00:42;;;;;;;1.67;1.25;;;21.00;99.90;;;;;;7383548;19;20143;-74
2023/07/05 03:03:08;;;;;;;1.83;1.13;;;21.00;99.90;;;;;;7388572;19;20164;-75
2023/07/05 03:05:34;;;;;;;1.15;0.90;;;21.10;99.90;;;;;;7386395;19;20647;-75
2023/07/05 03:07:59;;;;;;;3.03;1.00;;;21.00;99.90;;;;;;7384355;19;20147;-74
2023/07/05 03:10:25;;;;;;;1.35;1.13;;;21.10;99.90;;;;;;7387834;19;20122;-75
2023/07/05 03:12:51;;;;;;;1.77;1.10;;;21.10;99.90;;;;;;7386657;19;20150;-75
2023/07/05 03:15:17;;;;;;;1.20;1.05;;;21.10;99.90;;;;;;7385121;19;20154;-74
2023/07/05 03:17:43;;;;;;;1.88;1.25;;;21.10;99.90;;;;;;7384908;19;20149;-75
2023/07/05 03:20:09;;;;;;;1.50;1.15;;;21.00;99.90;;;;;;7386674;19;20210;-75
2023/07/05 03:22:35;;;;;;;1.77;1.17;;;21.10;99.90;;;;;;7385394;19;20135;-74
2023/07/05 03:25:01;;;;;;;1.65;1.00;;;21.00;99.90;;;;;;7387554;19;20141;-74
2023/07/05 03:27:28;;;;;;;2.10;1.25;;;21.00;99.90;;;;;;7385880;19;20221;-74
2023/07/05 03:29:55;;;;;;;1.88;1.20;;;21.00;99.90;;;;;;7388085;19;20607;-76
2023/07/05 03:32:21;;;;;;;1.65;1.10;;;21.10;99.90;;;;;;7387178;19;20579;-76
2023/07/05 03:34:47;;;;;;;1.20;0.90;;;21.10;99.90;;;;;;7382803;19;20146;-76
2023/07/05 03:37:13;;;;;;;1.40;1.20;;;21.10;99.90;;;;;;7388544;19;20458;-75
2023/07/05 03:39:39;;;;;;;0.93;0.88;;;21.10;99.90;;;;;;7384920;19;20194;-77
2023/07/05 03:42:05;;;;;;;1.23;0.98;;;21.10;99.90;;;;;;7383049;19;20929;-75
2023/07/05 03:44:31;;;;;;;1.95;1.00;;;21.10;99.90;;;;;;7385013;19;20131;-75
2023/07/05 03:46:56;;;;;;;2.22;0.98;;;21.00;99.90;;;;;;7384012;19;20647;-75
2023/07/05 03:49:22;;;;;;;2.15;1.60;;;21.10;99.90;;;;;;7385130;19;20138;-75
2023/07/05 03:51:48;;;;;;;1.55;1.30;;;21.10;99.90;;;;;;7385725;19;20138;-76
2023/07/05 03:54:13;;;;;;;2.63;1.40;;;21.20;99.90;;;;;;7384141;19;20134;-76
2023/07/05 03:56:39;;;;;;;3.25;1.35;;;21.10;99.90;;;;;;7384943;19;20534;-76
2023/07/05 03:59:05;;;;;;;2.08;1.33;;;21.20;99.90;;;;;;7384754;19;20151;-76
2023/07/05 04:01:32;;;;;;;2.45;1.35;;;21.10;99.90;;;;;;7384340;19;20134;-76
2023/07/05 04:04:00;;;;;;;3.40;1.33;;;21.00;99.90;;;;;;7385355;19;20138;-75
2023/07/05 04:06:28;;;;;;;2.67;1.25;;;21.00;99.90;;;;;;7387318;19;20127;-76
2023/07/05 04:08:55;;;;;;;2.42;1.33;;;21.00;99.90;;;;;;7384171;19;20135;-76
2023/07/05 04:11:21;;;;;;;1.33;0.90;;;21.00;99.90;;;;;;7386778;19;20262;-76
2023/07/05 04:13:48;;;;;;;1.60;1.10;;;21.00;99.90;;;;;;7384217;19;20151;-76
2023/07/05 04:16:17;;;;;;;1.50;0.98;;;20.90;99.90;;;;;;7384309;19;20171;-75
2023/07/05 04:18:45;;;;;;;1.75;1.27;;;20.90;99.90;;;;;;7384087;19;20142;-76
2023/07/05 04:21:12;;;;;;;2.22;1.40;;;20.90;99.90;;;;;;7387883;19;20150;-76
2023/07/05 04:23:39;;;;;;;3.70;1.20;;;20.90;99.90;;;;;;7385302;19;20161;-75
2023/07/05 04:26:11;;;;;;;3.47;1.52;;;20.80;99.90;;;;;;7384844;19;20138;-75
2023/07/05 04:28:39;;;;;;;3.35;1.30;;;20.80;99.90;;;;;;7385785;19;20143;-75
2023/07/05 04:31:07;;;;;;;2.17;1.50;;;21.00;99.90;;;;;;7384928;19;20158;-76
2023/07/05 04:33:33;;;;;;;2.95;1.10;;;21.00;99.90;;;;;;7384386;19;20218;-75
2023/07/05 04:36:00;;;;;;;1.40;1.10;;;20.80;99.90;;;;;;7384392;19;20131;-75
2023/07/05 04:38:26;;;;;;;2.35;1.20;;;20.80;99.90;;;;;;7384690;19;20140;-76
2023/07/05 04:40:53;;;;;;;3.05;1.10;;;20.90;99.90;;;;;;7384418;19;20146;-76
2023/07/05 04:43:19;;;;;;;2.45;1.20;;;20.80;99.90;;;;;;7383996;19;20577;-76
2023/07/05 04:45:52;;;;;;;1.55;1.10;;;20.90;99.90;;;;;;7384557;19;20248;-76
2023/07/05 04:48:19;;;;;;;1.52;1.33;;;20.90;99.90;;;;;;7390858;19;20198;-76
2023/07/05 04:50:50;;;;;;;3.10;1.45;;;21.00;99.90;;;;;;7390514;19;20766;-76
2023/07/05 04:53:16;;;;;;;2.95;1.40;;;20.90;99.90;;;;;;7391420;19;20135;-77
2023/07/05 04:55:46;;;;;;;3.45;1.40;;;20.90;99.90;;;;;;7387621;19;20217;-76
2023/07/05 04:58:12;;;;;;;3.10;1.92;;;20.90;99.90;;;;;;7389682;19;20141;-75
2023/07/05 05:00:38;;;;;;;3.90;2.20;;;20.80;99.90;;;;;;7392072;19;20151;-76
2023/07/05 05:03:04;;;;;;;4.00;2.33;;;20.90;99.90;;;;;;7389686;19;20130;-77
2023/07/05 05:05:30;;;;;;;5.07;1.80;;;20.80;99.90;;;;;;7388602;19;20447;-76
2023/07/05 05:07:55;;;;;;;2.80;1.33;;;21.00;99.90;;;;;;7389137;19;20477;-76
2023/07/05 05:10:21;;;;;;;3.80;1.63;;;21.10;99.90;;;;;;7390467;19;20134;-76
2023/07/05 05:12:47;;;;;;;2.30;1.40;;;21.10;99.90;;;;;;7389483;19;20154;-77
2023/07/05 05:15:12;;;;;;;3.58;1.80;;;21.20;99.90;;;;;;7385748;19;20127;-76
2023/07/05 05:17:38;;;;;;;2.25;1.23;;;21.30;99.90;;;;;;7388820;19;20135;-75
2023/07/05 05:20:05;;;;;;;2.22;1.35;;;21.20;99.90;;;;;;7388354;19;20228;-76
2023/07/05 05:22:30;;;;;;;2.80;1.35;;;21.20;99.90;;;;;;7388550;19;20150;-76
2023/07/05 05:24:56;;;;;;;4.32;1.75;;;21.20;99.90;;;;;;7386685;19;20491;-76
2023/07/05 05:27:22;;;;;;;4.20;1.95;;;21.30;99.90;;;;;;7388507;19;20138;-76
2023/07/05 05:29:48;;;;;;;5.15;2.25;;;21.40;99.90;;;;;;7388228;19;20175;-76
2023/07/05 05:32:14;;;;;;;3.05;1.70;;;21.40;99.90;;;;;;7383665;19;20146;-76
2023/07/05 05:34:39;;;;;;;2.15;1.60;;;21.50;99.90;;;;;;7386942;19;20146;-75
2023/07/05 05:37:05;;;;;;;4.10;1.50;;;21.40;99.90;;;;;;7384928;19;20122;-77
2023/07/05 05:39:33;;;;;;;1.17;1.00;;;21.50;99.90;;;;;;7389553;19;20130;-77
2023/07/05 05:41:59;;;;;;;1.42;1.00;;;21.50;99.90;;;;;;7384695;19;20138;-76
2023/07/05 05:44:25;;;;;;;3.33;1.40;;;21.50;99.90;;;;;;7385653;19;20250;-77
2023/07/05 05:46:51;;;;;;;3.45;1.45;;;21.50;99.90;;;;;;7382594;19;20213;-76
2023/07/05 05:49:18;;;;;;;1.80;1.40;;;21.50;99.90;;;;;;7387612;19;20134;-77
2023/07/05 05:51:44;;;;;;;3.25;1.30;;;21.60;99.90;;;;;;7385602;19;20150;-76
2023/07/05 05:54:09;;;;;;;2.58;1.50;;;21.70;99.90;;;;;;7387564;19;20265;-76
2023/07/05 05:56:35;;;;;;;6.30;1.73;;;21.80;99.90;;;;;;7381905;19;20391;-76
2023/07/05 05:59:02;;;;;;;3.65;1.35;;;21.90;99.90;;;;;;7385103;19;20242;-77
2023/07/05 06:01:28;;;;;;;3.15;1.33;;;22.10;99.90;;;;;;7384776;19;20147;-76
2023/07/05 06:03:54;;;;;;;2.47;1.42;;;22.10;99.90;;;;;;7389304;19;20178;-76
2023/07/05 06:06:19;;;;;;;5.72;2.92;;;22.10;99.90;;;;;;7387030;19;20146;-75
2023/07/05 06:08:45;;;;;;;5.00;2.75;;;22.20;99.90;;;;;;7384846;19;20165;-76
2023/07/05 06:11:11;;;;;;;1.40;1.20;;;22.20;99.90;;;;;;7377131;19;20135;-74
2023/07/05 06:13:37;;;;;;;3.72;1.42;;;22.00;99.90;;;;;;7385405;19;20139;-76
2023/07/05 06:16:04;;;;;;;1.75;1.27;;;22.10;99.90;;;;;;7383900;19;20142;-75
2023/07/05 06:18:29;;;;;;;2.25;1.33;;;22.00;99.90;;;;;;7387290;19;20453;-72
2023/07/05 06:20:55;;;;;;;3.22;1.30;;;22.00;99.90;;;;;;7389191;19;20151;-73
2023/07/05 06:23:21;;;;;;;2.85;1.30;;;22.00;99.90;;;;;;7386374;19;20138;-73
2023/07/05 06:25:49;;;;;;;3.95;1.30;;;22.30;99.90;;;;;;7386254;19;20165;-78
2023/07/05 06:28:16;;;;;;;2.70;1.20;;;22.10;99.90;;;;;;7386087;19;20131;-76
2023/07/05 06:30:43;;;;;;;4.00;1.55;;;22.30;99.90;;;;;;7388699;19;20163;-73
2023/07/05 06:33:09;;;;;;;2.03;1.30;;;23.00;99.90;;;;;;7384746;19;20472;-75
2023/07/05 06:35:34;;;;;;;1.77;1.27;;;23.00;99.90;;;;;;7383991;19;20145;-80
2023/07/05 06:38:01;;;;;;;2.38;1.70;;;22.80;99.90;;;;;;7385284;19;20595;-77
2023/07/05 06:40:26;;;;;;;2.88;1.77;;;22.50;99.90;;;;;;7389464;19;20154;-79
2023/07/05 06:42:52;;;;;;;3.97;1.55;;;22.50;99.90;;;;;;7389350;19;20595;-78
2023/07/05 06:45:18;;;;;;;3.53;2.17;;;22.40;99.90;;;;;;7387197;19;20134;-75
2023/07/05 06:47:45;;;;;;;5.35;2.33;;;22.20;99.90;;;;;;7385729;19;20171;-75
2023/07/05 06:50:12;;;;;;;2.70;1.65;;;22.00;99.90;;;;;;7386041;19;20142;-73
2023/07/05 06:52:39;;;;;;;4.60;2.75;;;22.00;99.90;;;;;;7386360;19;20391;-74
2023/07/05 06:55:05;;;;;;;2.45;1.60;;;21.90;99.90;;;;;;7385641;19;20619;-73
2023/07/05 06:57:31;;;;;;;3.63;1.40;;;21.70;99.90;;;;;;7388494;19;20143;-72
2023/07/05 06:59:57;;;;;;;1.65;1.10;;;21.40;99.90;;;;;;7387608;19;20163;-74
2023/07/05 07:02:23;;;;;;;2.47;1.40;;;21.20;99.90;;;;;;7388331;19;20142;-73
2023/07/05 07:04:48;;;;;;;3.72;1.73;;;20.90;99.90;;;;;;7386748;19;20165;-73
2023/07/05 07:07:15;;;;;;;2.97;2.10;;;20.90;99.90;;;;;;7386332;19;21081;-74
2023/07/05 07:09:43;;;;;;;2.25;1.65;;;20.90;99.90;;;;;;7384748;19;20138;-74
2023/07/05 07:12:09;;;;;;;5.28;1.83;;;20.80;99.90;;;;;;7385718;19;20138;-72
2023/07/05 07:14:35;;;;;;;3.58;1.67;;;20.80;99.90;;;;;;7383804;19;20395;-71
2023/07/05 07:17:01;;;;;;;4.25;1.90;;;20.70;99.90;;;;;;7386139;19;20135;-74
2023/07/05 07:19:27;;;;;;;3.38;2.00;;;20.80;99.90;;;;;;7385808;19;20217;-76
2023/07/05 07:21:52;;;;;;;2.42;1.67;;;20.80;99.90;;;;;;7384634;19;20169;-76
2023/07/05 07:24:18;;;;;;;3.60;1.50;;;21.00;99.90;;;;;;7387838;19;20159;-75
2023/07/05 07:26:44;;;;;;;1.63;1.40;;;21.20;99.90;;;;;;7384331;19;20135;-75
2023/07/05 07:29:11;;;;;;;3.72;2.95;;;21.40;99.90;;;;;;7385513;19;20177;-75
2023/07/05 07:31:38;;;;;;;3.20;1.90;;;21.60;99.90;;;;;;7385389;19;20158;-75
2023/07/05 07:34:07;;;;;;;3.80;1.83;;;21.70;99.90;;;;;;7383024;19;20180;-75
2023/07/05 07:36:34;;;;;;;2.42;1.67;;;21.80;99.90;;;;;;7386489;19;20498;-77
2023/07/05 07:39:01;;;;;;;5.05;1.40;;;22.50;99.90;;;;;;7385375;19;20169;-78
2023/07/05 07:41:29;;;;;;;3.17;1.15;;;22.90;99.90;;;;;;7386242;19;20143;-76
2023/07/05 07:44:01;;;;;;;1.42;1.20;;;22.40;99.90;;;;;;7385280;19;20191;-78
2023/07/05 07:46:29;;;;;;;2.17;1.73;;;22.30;99.90;;;;;;7382178;19;20679;-78
2023/07/05 07:48:56;;;;;;;2.28;1.30;;;22.50;99.90;;;;;;7384505;19;20546;-77
2023/07/05 07:51:25;;;;;;;1.70;1.25;;;22.60;99.90;;;;;;7385401;19;20253;-77
2023/07/05 07:53:51;;;;;;;1.20;0.93;;;22.40;99.90;;;;;;7384761;19;20150;-76
2023/07/05 07:56:19;;;;;;;1.77;1.00;;;22.10;99.90;;;;;;7386081;19;20853;-77
2023/07/05 07:58:50;;;;;;;2.08;0.95;;;21.70;99.90;;;;;;7387459;19;20142;-77
2023/07/05 08:01:22;;;;;;;1.55;0.90;;;21.40;99.90;;;;;;7383320;19;20595;-77
2023/07/05 08:03:49;;;;;;;1.80;1.17;;;21.20;99.90;;;;;;7386401;19;20139;-76
2023/07/05 08:06:15;;;;;;;1.00;0.90;;;20.90;99.90;;;;;;7383292;19;20453;-76
2023/07/05 08:08:42;;;;;;;2.60;1.92;;;20.80;99.90;;;;;;7381579;19;20155;-77
2023/07/05 08:11:09;;;;;;;11.88;8.25;;;20.80;99.90;;;;;;7383866;19;20595;-79
2023/07/05 08:13:36;;;;;;;2.20;2.00;;;20.70;99.90;;;;;;7382836;19;20139;-77
2023/07/05 08:16:03;;;;;;;1.35;1.15;;;20.70;99.90;;;;;;7385105;19;20249;-80
2023/07/05 08:18:29;;;;;;;1.60;1.10;;;20.70;99.90;;;;;;7384665;19;20169;-79
2023/07/05 08:20:56;;;;;;;4.05;1.30;;;20.60;99.90;;;;;;7387009;19;20131;-78
2023/07/05 08:23:22;;;;;;;2.63;1.30;;;20.60;99.90;;;;;;7394143;19;20156;-77
2023/07/05 08:25:54;;;;;;;1.65;1.17;;;20.50;99.90;;;;;;7390852;19;20134;-79
2023/07/05 08:28:25;;;;;;;2.00;1.33;;;20.60;99.90;;;;;;7390758;19;20468;-81
2023/07/05 08:30:59;;;;;;;2.88;1.50;;;20.60;99.90;;;;;;7390755;19;20192;-81
2023/07/05 08:33:31;;;;;;;2.13;1.33;;;20.60;99.90;;;;;;7390240;19;20768;-82
2023/07/05 08:36:37;;;;;;;5.57;3.63;;;20.60;99.90;;;;;;7389269;19;20151;-81
2023/07/05 08:39:06;;;;;;;2.08;1.77;;;20.60;99.90;;;;;;7387812;19;20154;-79
2023/07/05 08:41:48;;;;;;;2.55;1.65;;;20.50;99.90;;;;;;7390101;19;20161;-80
2023/07/05 08:44:36;;;;;;;3.22;2.17;;;20.40;99.90;;;;;;7390234;19;20134;-80
2023/07/05 08:47:07;;;;;;;5.72;3.97;;;20.60;99.90;;;;;;7387521;19;20169;-81
2023/07/05 08:49:36;;;;;;;2.10;1.45;;;20.60;99.90;;;;;;7392466;19;20139;-82
2023/07/05 08:52:03;;;;;;;2.03;1.30;;;20.90;99.90;;;;;;7389276;19;20138;-80
2023/07/05 08:54:32;;;;;;;2.65;1.77;;;20.90;99.90;;;;;;7388731;19;20134;-80
2023/07/05 08:57:23;;;;;;;1.58;1.40;;;20.90;99.90;;;;;;7390246;19;20138;-80
2023/07/05 09:00:06;;;;;;;7.22;5.93;;;20.90;99.90;;;;;;7388780;19;20138;-80
2023/07/05 09:02:32;;;;;;;3.60;2.80;;;21.00;99.90;;;;;;7391649;19;20130;-79
2023/07/05 09:04:58;;;;;;;6.28;3.63;;;21.40;99.90;;;;;;7388051;19;20138;-79
2023/07/05 09:08:02;;;;;;;2.97;2.20;;;21.40;99.90;;;;;;7388199;19;20157;-78
2023/07/05 09:10:30;;;;;;;2.97;2.17;;;21.40;99.90;;;;;;7388305;19;20126;-79
2023/07/05 09:13:07;;;;;;;2.20;1.75;;;21.70;99.90;;;;;;7391587;19;20174;-81
2023/07/05 09:15:38;;;;;;;3.08;2.08;;;22.10;99.90;;;;;;7384911;19;20167;-80
2023/07/05 09:18:21;;;;;;;5.40;2.72;;;22.00;99.90;;;;;;7389322;19;20139;-79
2023/07/05 09:21:05;;;;;;;4.20;2.63;;;21.80;99.90;;;;;;7390248;19;20127;-78
2023/07/05 09:23:38;;;;;;;4.32;2.33;;;22.00;99.90;;;;;;7389183;19;20160;-79
2023/07/05 09:26:14;;;;;;;2.03;1.48;;;22.20;99.90;;;;;;7389173;19;20284;-79
2023/07/05 09:28:50;;;;;;;5.03;1.95;;;22.10;99.90;;;;;;7388910;19;20134;-80
2023/07/05 09:31:16;;;;;;;2.42;2.10;;;22.60;99.90;;;;;;7388335;19;20578;-79
2023/07/05 09:33:48;;;;;;;2.72;1.83;;;22.90;99.90;;;;;;7389394;19;20864;-80
2023/07/05 09:36:22;;;;;;;3.55;2.47;;;23.20;99.90;;;;;;7388729;19;20142;-80
2023/07/05 09:38:55;;;;;;;4.10;1.85;;;23.20;99.90;;;;;;7389661;19;20230;-80
2023/07/05 09:41:46;;;;;;;3.58;1.65;;;23.10;99.90;;;;;;7389216;19;20492;-79
2023/07/05 09:44:12;;;;;;;2.45;1.50;;;23.20;99.90;;;;;;7390066;19;20135;-80
2023/07/05 09:46:38;;;;;;;4.40;2.15;;;23.30;99.90;;;;;;7386952;19;20185;-79
2023/07/05 09:49:12;;;;;;;8.23;5.93;;;23.50;99.90;;;;;;7388559;19;20142;-80
2023/07/05 09:51:41;;;;;;;2.33;1.58;;;23.80;99.90;;;;;;7388978;19;20157;-80
2023/07/05 09:54:28;;;;;;;4.28;2.20;;;24.00;99.90;;;;;;7385704;19;20142;-80
2023/07/05 09:57:04;;;;;;;3.20;1.95;;;24.10;99.90;;;;;;7392259;19;20142;-80
2023/07/05 09:59:32;;;;;;;3.25;1.90;;;24.10;99.90;;;;;;7393605;19;20156;-80
2023/07/05 10:02:10;;;;;;;2.33;1.90;;;24.00;99.90;;;;;;7387431;19;20185;-80
2023/07/05 10:04:44;;;;;;;2.15;1.60;;;24.20;99.90;;;;;;7382961;19;20157;-79
2023/07/05 10:07:32;;;;;;;2.80;1.77;;;24.30;99.90;;;;;;7384604;19;20142;-81
2023/07/05 10:10:07;;;;;;;3.17;2.03;;;24.30;99.90;;;;;;7387882;19;20138;-81
2023/07/05 10:12:39;;;;;;;1.77;1.42;;;24.50;99.90;;;;;;7383930;19;20984;-79
2023/07/05 10:15:23;;;;;;;2.63;1.92;;;24.20;99.90;;;;;;7384705;19;20152;-81
2023/07/05 10:17:52;;;;;;;3.55;2.10;;;24.00;99.90;;;;;;7387132;19;20575;-80
2023/07/05 10:20:26;;;;;;;3.45;1.95;;;23.80;99.90;;;;;;7387896;19;20165;-79
2023/07/05 10:23:04;;;;;;;2.35;1.90;;;23.90;99.90;;;;;;7387537;19;20134;-76
2023/07/05 10:25:40;;;;;;;3.67;2.20;;;24.10;99.90;;;;;;7389866;19;20162;-79
2023/07/05 10:28:07;;;;;;;3.75;1.92;;;24.30;99.90;;;;;;7386796;19;20142;-77
2023/07/05 10:30:50;;;;;;;3.63;2.22;;;24.50;99.90;;;;;;7393671;19;20143;-81
2023/07/05 10:33:24;;;;;;;2.47;2.17;;;24.60;99.90;;;;;;7389387;19;20147;-84
2023/07/05 10:35:58;;;;;;;4.13;2.00;;;24.80;99.90;;;;;;7382364;19;20194;-81
2023/07/05 10:38:29;;;;;;;5.20;4.10;;;24.70;99.90;;;;;;7387857;19;20490;-81
2023/07/05 10:41:09;;;;;;;3.35;2.00;;;24.70;99.90;;;;;;7387829;19;20146;-80
2023/07/05 10:43:35;;;;;;;2.72;1.90;;;24.90;99.80;;;;;;7385998;19;20154;-80
2023/07/05 10:46:02;;;;;;;2.20;1.77;;;25.00;99.40;;;;;;7386054;19;20168;-80
2023/07/05 10:48:41;;;;;;;1.88;1.70;;;24.90;95.60;;;;;;7383946;19;20142;-78
2023/07/05 10:51:23;;;;;;;2.40;2.00;;;24.90;95.60;;;;;;7387734;19;20441;-77
2023/07/05 10:54:11;;;;;;;3.00;2.25;;;24.90;94.40;;;;;;7387291;19;20142;-77
2023/07/05 10:56:40;;;;;;;3.53;2.28;;;25.00;95.00;;;;;;7387151;19;20163;-77
2023/07/05 10:59:26;;;;;;;4.85;2.45;;;25.00;94.50;;;;;;7386454;19;20180;-78
2023/07/05 11:01:56;;;;;;;2.10;1.75;;;24.90;94.10;;;;;;7387451;19;20168;-80
2023/07/05 11:04:28;;;;;;;4.57;1.80;;;25.00;94.80;;;;;;7388204;19;20491;-80
2023/07/05 11:07:05;;;;;;;3.63;2.40;;;25.20;95.20;;;;;;7386487;19;20151;-80
2023/07/05 11:09:35;;;;;;;4.05;2.72;;;25.20;94.00;;;;;;7386535;19;20141;-80
2023/07/05 11:12:04;;;;;;;3.08;2.28;;;25.10;95.20;;;;;;7386950;19;20143;-82
2023/07/05 11:14:30;;;;;;;3.88;2.92;;;25.10;96.00;;;;;;7388976;19;20147;-81
2023/07/05 11:16:57;;;;;;;2.75;2.13;;;24.80;94.80;;;;;;7384437;19;20679;-82
2023/07/05 11:19:27;;;;;;;4.70;2.42;;;24.70;94.90;;;;;;7388970;19;20583;-82
2023/07/05 11:21:54;;;;;;;3.88;2.30;;;24.40;95.60;;;;;;7386717;19;20147;-83
2023/07/05 11:24:38;;;;;;;3.22;2.63;;;24.00;96.20;;;;;;7385658;19;20158;-82
2023/07/05 11:27:24;;;;;;;2.60;2.10;;;23.90;96.40;;;;;;7384766;19;20162;-83
2023/07/05 11:29:53;;;;;;;2.38;1.90;;;23.90;96.90;;;;;;7386348;19;20154;-82
2023/07/05 11:32:21;;;;;;;3.53;1.90;;;23.80;96.60;;;;;;7385991;19;20570;-80
2023/07/05 11:34:53;;;;;;;2.78;2.15;;;23.90;96.40;;;;;;7382131;19;20159;-81
2023/07/05 11:37:21;;;;;;;2.15;1.60;;;24.00;95.50;;;;;;7392974;19;20250;-81
2023/07/05 11:39:51;;;;;;;3.70;2.28;;;23.80;95.60;;;;;;7387344;19;20146;-79
2023/07/05 11:42:22;;;;;;;2.10;1.90;;;23.80;95.20;;;;;;7386942;19;20622;-82
2023/07/05 11:44:49;;;;;;;2.70;1.90;;;23.80;94.30;;;;;;7385913;19;20548;-81
2023/07/05 11:47:23;;;;;;;2.50;2.03;;;23.80;94.30;;;;;;7382119;19;20142;-80
2023/07/05 11:50:09;;;;;;;3.92;2.28;;;24.00;94.60;;;;;;7385807;19;20150;-81
2023/07/05 11:52:47;;;;;;;2.88;2.00;;;24.20;94.60;;;;;;7382982;19;20142;-80
2023/07/05 11:55:27;;;;;;;3.53;1.83;;;24.30;94.60;;;;;;7380185;19;20177;-80
2023/07/05 11:58:21;;;;;;;2.72;2.10;;;24.50;93.20;;;;;;7383422;19;20574;-77
2023/07/05 12:00:48;;;;;;;2.13;1.65;;;24.40;93.20;;;;;;7382712;19;20158;-81
2023/07/05 12:03:14;;;;;;;4.50;1.80;;;24.00;93.00;;;;;;7386142;19;20135;-80
2023/07/05 12:05:41;;;;;;;3.15;1.77;;;23.90;93.10;;;;;;7384562;19;20222;-81
2023/07/05 12:08:21;;;;;;;3.00;1.67;;;24.10;93.20;;;;;;7383383;19;20142;-79
2023/07/05 12:11:01;;;;;;;1.90;1.42;;;24.20;92.50;;;;;;7388460;19;20165;-79
2023/07/05 12:13:32;;;;;;;2.45;1.85;;;24.20;93.40;;;;;;7382126;19;20394;-77
2023/07/05 12:15:59;;;;;;;2.40;1.58;;;24.40;92.90;;;;;;7381999;19;20145;-81
2023/07/05 12:18:27;;;;;;;2.28;1.40;;;24.50;91.40;;;;;;7384469;19;20497;-77
2023/07/05 12:20:54;;;;;;;3.92;1.85;;;24.30;90.60;;;;;;7387571;19;20161;-79
2023/07/05 12:23:23;;;;;;;3.28;1.45;;;24.00;90.60;;;;;;7385938;19;20135;-81
2023/07/05 12:25:52;;;;;;;2.50;1.65;;;23.80;90.40;;;;;;7384705;19;20210;-78
2023/07/05 12:28:22;;;;;;;1.60;1.50;;;23.70;91.10;;;;;;7382110;19;20595;-81
2023/07/05 12:30:48;;;;;;;3.92;2.10;;;23.80;91.00;;;;;;7385487;19;20150;-82
2023/07/05 12:33:35;;;;;;;2.80;1.30;;;24.00;90.90;;;;;;7384499;19;20142;-80
2023/07/05 12:36:11;;;;;;;3.22;1.35;;;24.10;90.80;;;;;;7380836;19;20202;-80
2023/07/05 12:38:42;;;;;;;4.28;1.75;;;24.20;90.50;;;;;;7384343;19;20139;-81
2023/07/05 12:41:16;;;;;;;3.15;1.90;;;24.10;90.10;;;;;;7381501;19;20135;-81
2023/07/05 12:43:42;;;;;;;2.13;1.40;;;23.80;89.30;;;;;;7385939;19;20567;-80
2023/07/05 12:46:22;;;;;;;1.95;1.33;;;23.60;90.00;;;;;;7381091;19;20154;-80
2023/07/05 12:48:49;;;;;;;4.15;1.55;;;23.60;90.10;;;;;;7382144;19;20829;-79
2023/07/05 12:51:21;;;;;;;19.20;2.05;;;23.90;90.40;;;;;;7381787;19;20210;-77
2023/07/05 12:53:58;;;;;;;2.95;1.70;;;24.10;90.60;;;;;;7381713;19;20217;-78
2023/07/05 12:56:34;;;;;;;3.47;1.83;;;24.30;90.60;;;;;;7381755;19;20153;-81
2023/07/05 12:59:06;;;;;;;1.58;1.20;;;24.60;90.40;;;;;;7380780;19;20151;-79
2023/07/05 13:01:41;;;;;;;2.13;1.60;;;24.90;88.20;;;;;;7382955;19;20241;-78
2023/07/05 13:04:10;;;;;;;2.00;1.60;;;24.90;87.50;;;;;;7383671;19;20198;-77